sensor_id;sensor_type;location;lat;lon;timestamp;pressure;altitude;pressure_sealevel;temperature;humidity
32851;BME280;19202;48.992;8.390;2023-02-03T00:02:18;101797.06;;;8.37;86.24
32851;BME280;19202;48.992;8.390;2023-02-03T00:07:57;101797.94;;;8.33;86.43
32851;BME280;19202;48.992;8.390;2023-02-03T00:13:35;101795.28;;;8.39;85.82
32851;BME280;19202;48.992;8.390;2023-02-03T00:19:12;101775.94;;;8.34;85.14
32851;BME280;19202;48.992;8.390;2023-02-03T00:24:50;101779.47;;;8.39;84.91
32851;BME280;19202;48.992;8.390;2023-02-03T00:30:28;101775.09;;;8.35;84.69
32851;BME280;19202;48.992;8.390;2023-02-03T00:36:07;101771.56;;;8.39;84.34
32851;BME280;19202;48.992;8.390;2023-02-03T00:41:45;101795.28;;;8.36;84.28
32851;BME280;19202;48.992;8.390;2023-02-03T00:47:23;101788.22;;;8.44;83.88
32851;BME280;19202;48.992;8.390;2023-02-03T00:53:01;101784.72;;;8.42;83.83
32851;BME280;19202;48.992;8.390;2023-02-03T00:58:39;101790.00;;;8.42;83.93
32851;BME280;19202;48.992;8.390;2023-02-03T01:04:17;101783.81;;;8.49;83.74
32851;BME280;19202;48.992;8.390;2023-02-03T01:09:54;101764.47;;;8.44;83.87
32851;BME280;19202;48.992;8.390;2023-02-03T01:15:32;101753.03;;;8.51;83.71
32851;BME280;19202;48.992;8.390;2023-02-03T01:21:13;101740.69;;;8.56;83.68
32851;BME280;19202;48.992;8.390;2023-02-03T01:26:51;101732.78;;;8.56;83.63
32851;BME280;19202;48.992;8.390;2023-02-03T01:32:29;101767.06;;;8.59;84.00
32851;BME280;19202;48.992;8.390;2023-02-03T01:38:07;101786.41;;;8.61;83.83
32851;BME280;19202;48.992;8.390;2023-02-03T01:43:50;101768.84;;;8.57;84.55
32851;BME280;19202;48.992;8.390;2023-02-03T01:49:33;101756.50;;;8.56;84.96
32851;BME280;19202;48.992;8.390;2023-02-03T01:55:16;101743.28;;;8.62;84.70
32851;BME280;19202;48.992;8.390;2023-02-03T02:00:57;101717.88;;;8.46;85.69
32851;BME280;19202;48.992;8.390;2023-02-03T02:06:35;101702.94;;;8.42;86.29
32851;BME280;19202;48.992;8.390;2023-02-03T02:12:13;101673.09;;;8.37;86.70
32851;BME280;19202;48.992;8.390;2023-02-03T02:18:00;101688.94;;;8.37;87.29
32851;BME280;19202;48.992;8.390;2023-02-03T02:36:32;101682.78;;;8.32;88.71
32851;BME280;19202;48.992;8.390;2023-02-03T02:48:16;101669.63;;;8.26;88.86
32851;BME280;19202;48.992;8.390;2023-02-03T02:53:59;101675.75;;;8.32;88.18
32851;BME280;19202;48.992;8.390;2023-02-03T02:59:39;101659.97;;;8.16;89.09
32851;BME280;19202;48.992;8.390;2023-02-03T03:05:17;101664.34;;;8.27;88.70
32851;BME280;19202;48.992;8.390;2023-02-03T03:10:56;101653.81;;;8.26;88.76
32851;BME280;19202;48.992;8.390;2023-02-03T03:16:36;101637.09;;;8.24;88.92
32851;BME280;19202;48.992;8.390;2023-02-03T03:22:17;101647.63;;;8.30;88.24
32851;BME280;19202;48.992;8.390;2023-02-03T03:28:02;101668.78;;;8.27;88.98
32851;BME280;19202;48.992;8.390;2023-02-03T03:33:42;101674.03;;;8.21;89.69
32851;BME280;19202;48.992;8.390;2023-02-03T03:39:48;101681.94;;;8.25;88.90
32851;BME280;19202;48.992;8.390;2023-02-03T03:45:39;101710.06;;;8.20;88.78
32851;BME280;19202;48.992;8.390;2023-02-03T03:51:25;101718.84;;;8.21;88.57
32851;BME280;19202;48.992;8.390;2023-02-03T03:57:07;101729.38;;;8.22;88.23
32851;BME280;19202;48.992;8.390;2023-02-03T04:02:50;101730.31;;;8.17;87.99
32851;BME280;19202;48.992;8.390;2023-02-03T04:08:29;101746.13;;;8.17;87.71
32851;BME280;19202;48.992;8.390;2023-02-03T04:14:07;101730.28;;;8.29;87.12
32851;BME280;19202;48.992;8.390;2023-02-03T04:19:46;101707.44;;;8.19;87.94
32851;BME280;19202;48.992;8.390;2023-02-03T04:25:24;101707.44;;;8.19;88.00
32851;BME280;19202;48.992;8.390;2023-02-03T04:31:02;101707.41;;;8.31;87.45
32851;BME280;19202;48.992;8.390;2023-02-03T04:36:40;101712.72;;;8.25;87.58
32851;BME280;19202;48.992;8.390;2023-02-03T04:42:18;101721.50;;;8.18;88.06
32851;BME280;19202;48.992;8.390;2023-02-03T04:47:56;101722.38;;;8.15;88.17
32851;BME280;19202;48.992;8.390;2023-02-03T04:53:34;101707.47;;;8.10;88.26
32851;BME280;19202;48.992;8.390;2023-02-03T04:59:12;101712.75;;;8.13;87.89
32851;BME280;19202;48.992;8.390;2023-02-03T05:04:50;101719.72;;;8.20;87.15
32851;BME280;19202;48.992;8.390;2023-02-03T05:10:28;101714.47;;;8.17;87.21
32851;BME280;19202;48.992;8.390;2023-02-03T05:16:06;101714.47;;;8.23;86.58
32851;BME280;19202;48.992;8.390;2023-02-03T05:21:44;101693.38;;;8.26;86.25
32851;BME280;19202;48.992;8.390;2023-02-03T05:27:22;101698.63;;;8.27;85.98
32851;BME280;19202;48.992;8.390;2023-02-03T05:33:00;101706.50;;;8.33;85.44
32851;BME280;19202;48.992;8.390;2023-02-03T05:38:38;101700.31;;;8.42;84.90
32851;BME280;19202;48.992;8.390;2023-02-03T05:44:16;101702.09;;;8.40;84.63
32851;BME280;19202;48.992;8.390;2023-02-03T05:49:54;101695.06;;;8.36;84.58
32851;BME280;19202;48.992;8.390;2023-02-03T05:55:32;101701.28;;;8.29;85.31
32851;BME280;19202;48.992;8.390;2023-02-03T06:01:10;101703.91;;;8.24;85.90
32851;BME280;19202;48.992;8.390;2023-02-03T06:06:48;101687.22;;;8.27;85.70
32851;BME280;19202;48.992;8.390;2023-02-03T06:12:26;101692.47;;;8.33;85.25
32851;BME280;19202;48.992;8.390;2023-02-03T06:18:05;101683.63;;;8.40;84.33
32851;BME280;19202;48.992;8.390;2023-02-03T06:23:43;101699.50;;;8.31;84.69
32851;BME280;19202;48.992;8.390;2023-02-03T06:29:21;101689.84;;;8.33;84.91
32851;BME280;19202;48.992;8.390;2023-02-03T06:34:59;101675.75;;;8.34;85.28
32851;BME280;19202;48.992;8.390;2023-02-03T06:40:37;101667.03;;;8.17;85.80
32851;BME280;19202;48.992;8.390;2023-02-03T06:46:15;101688.13;;;8.14;85.21
32851;BME280;19202;48.992;8.390;2023-02-03T06:51:53;101670.53;;;8.16;84.88
32851;BME280;19202;48.992;8.390;2023-02-03T06:57:31;101681.09;;;8.13;85.40
32851;BME280;19202;48.992;8.390;2023-02-03T07:03:09;101668.81;;;8.06;86.47
32851;BME280;19202;48.992;8.390;2023-02-03T07:08:47;101656.59;;;7.93;86.95
32851;BME280;19202;48.992;8.390;2023-02-03T07:14:25;101652.16;;;7.98;86.93
32851;BME280;19202;48.992;8.390;2023-02-03T07:20:04;101627.56;;;7.97;86.91
32851;BME280;19202;48.992;8.390;2023-02-03T07:25:42;101636.41;;;7.89;87.48
32851;BME280;19202;48.992;8.390;2023-02-03T07:31:20;101672.41;;;7.90;87.47
32851;BME280;19202;48.992;8.390;2023-02-03T07:36:58;101685.59;;;7.79;88.98
32851;BME280;19202;48.992;8.390;2023-02-03T07:42:44;101707.56;;;7.80;89.20
32851;BME280;19202;48.992;8.390;2023-02-03T07:48:22;101711.94;;;7.88;88.61
32851;BME280;19202;48.992;8.390;2023-02-03T07:54:00;101730.38;;;7.93;88.21
32851;BME280;19202;48.992;8.390;2023-02-03T07:59:38;101729.47;;;7.98;88.12
32851;BME280;19202;48.992;8.390;2023-02-03T08:05:16;101760.19;;;8.13;87.46
32851;BME280;19202;48.992;8.390;2023-02-03T08:10:55;101752.31;;;8.07;87.91
32851;BME280;19202;48.992;8.390;2023-02-03T08:16:33;101749.66;;;8.04;87.79
32851;BME280;19202;48.992;8.390;2023-02-03T08:22:12;101741.75;;;8.07;87.46
32851;BME280;19202;48.992;8.390;2023-02-03T08:27:53;101767.22;;;8.11;87.45
32851;BME280;19202;48.992;8.390;2023-02-03T08:33:31;101768.94;;;8.24;86.72
32851;BME280;19202;48.992;8.390;2023-02-03T08:39:09;101748.75;;;8.26;86.95
32851;BME280;19202;48.992;8.390;2023-02-03T08:44:47;101750.50;;;8.18;87.67
32851;BME280;19202;48.992;8.390;2023-02-03T08:50:26;101744.34;;;8.16;87.69
32851;BME280;19202;48.992;8.390;2023-02-03T08:56:06;101744.34;;;8.19;87.80
32851;BME280;19202;48.992;8.390;2023-02-03T09:01:44;101740.81;;;8.26;88.24
32851;BME280;19202;48.992;8.390;2023-02-03T09:07:23;101736.41;;;8.23;88.80
32851;BME280;19202;48.992;8.390;2023-02-03T09:13:01;101739.09;;;8.25;88.75
32851;BME280;19202;48.992;8.390;2023-02-03T09:18:39;101744.34;;;8.16;89.24
32851;BME280;19202;48.992;8.390;2023-02-03T09:24:17;101744.31;;;8.22;89.07
32851;BME280;19202;48.992;8.390;2023-02-03T09:29:55;101747.84;;;8.28;88.67
32851;BME280;19202;48.992;8.390;2023-02-03T09:35:35;101724.97;;;8.35;88.95
32851;BME280;19202;48.992;8.390;2023-02-03T09:41:43;101741.69;;;8.32;90.64
32851;BME280;19202;48.992;8.390;2023-02-03T09:47:26;101731.94;;;8.48;90.24
32851;BME280;19202;48.992;8.390;2023-02-03T09:53:27;101712.56;;;8.55;90.14
32851;BME280;19202;48.992;8.390;2023-02-03T09:59:08;101710.78;;;8.54;90.74
32851;BME280;19202;48.992;8.390;2023-02-03T10:05:02;101701.13;;;8.55;90.13
32851;BME280;19202;48.992;8.390;2023-02-03T10:10:57;101716.91;;;8.61;89.21
32851;BME280;19202;48.992;8.390;2023-02-03T10:17:45;101732.72;;;8.62;89.22
32851;BME280;19202;48.992;8.390;2023-02-03T10:23:10;101726.56;;;8.66;89.35
32851;BME280;19202;48.992;8.390;2023-02-03T10:28:57;101742.38;;;8.69;89.27
32851;BME280;19202;48.992;8.390;2023-02-03T10:34:41;101739.66;;;8.78;88.25
32851;BME280;19202;48.992;8.390;2023-02-03T10:40:23;101713.34;;;8.71;88.58
32851;BME280;19202;48.992;8.390;2023-02-03T10:46:01;101699.16;;;8.84;87.93
32851;BME280;19202;48.992;8.390;2023-02-03T10:51:44;101699.13;;;8.91;87.60
32851;BME280;19202;48.992;8.390;2023-02-03T10:57:24;101705.28;;;8.90;87.45
32851;BME280;19202;48.992;8.390;2023-02-03T11:03:15;101718.31;;;9.10;86.51
32851;BME280;19202;48.992;8.390;2023-02-03T11:08:53;101701.53;;;9.21;86.05
32851;BME280;19202;48.992;8.390;2023-02-03T11:14:37;101702.31;;;9.28;85.43
32851;BME280;19202;48.992;8.390;2023-02-03T11:20:16;101694.47;;;9.23;85.40
32851;BME280;19202;48.992;8.390;2023-02-03T11:25:55;101683.06;;;9.17;85.79
32851;BME280;19202;48.992;8.390;2023-02-03T11:31:35;101680.34;;;9.24;85.62
32851;BME280;19202;48.992;8.390;2023-02-03T11:43:15;101654.75;;;9.32;85.78
32851;BME280;19202;48.992;8.390;2023-02-03T11:49:03;101637.84;;;9.49;84.53
32851;BME280;19202;48.992;8.390;2023-02-03T11:54:55;101645.69;;;9.56;84.07
32851;BME280;19202;48.992;8.390;2023-02-03T12:18:27;101647.88;;;9.95;79.37
32851;BME280;19202;48.992;8.390;2023-02-03T12:24:12;101660.19;;;9.98;78.85
32851;BME280;19202;48.992;8.390;2023-02-03T12:30:05;101669.81;;;10.03;78.42
32851;BME280;19202;48.992;8.390;2023-02-03T12:35:53;101674.22;;;10.03;78.53
32851;BME280;19202;48.992;8.390;2023-02-03T12:41:37;101697.22;;;9.98;78.81
32851;BME280;19202;48.992;8.390;2023-02-03T12:53:14;101651.34;;;9.99;78.70
32851;BME280;19202;48.992;8.390;2023-02-03T12:58:58;101591.53;;;9.92;78.92
32851;BME280;19202;48.992;8.390;2023-02-03T13:04:46;101595.88;;;9.96;78.95
32851;BME280;19202;48.992;8.390;2023-02-03T13:10:35;101582.56;;;10.02;78.78
32851;BME280;19202;48.992;8.390;2023-02-03T13:16:18;101589.50;;;10.12;78.33
32851;BME280;19202;48.992;8.390;2023-02-03T13:21:58;101584.94;;;10.23;78.17
32851;BME280;19202;48.992;8.390;2023-02-03T13:27:47;101602.63;;;10.19;78.34
32851;BME280;19202;48.992;8.390;2023-02-03T13:33:40;101596.59;;;10.07;79.22
32851;BME280;19202;48.992;8.390;2023-02-03T13:45:36;101573.69;;;10.06;80.57
32851;BME280;19202;48.992;8.390;2023-02-03T13:51:20;101585.13;;;10.08;80.85
32851;BME280;19202;48.992;8.390;2023-02-03T13:57:01;101578.25;;;9.95;81.92
32851;BME280;19202;48.992;8.390;2023-02-03T14:02:45;101602.16;;;9.87;82.44
32851;BME280;19202;48.992;8.390;2023-02-03T14:25:30;101580.25;;;9.78;84.25
32851;BME280;19202;48.992;8.390;2023-02-03T14:31:20;101582.94;;;9.73;84.69
32851;BME280;19202;48.992;8.390;2023-02-03T14:37:23;101581.88;;;9.86;83.71
32851;BME280;19202;48.992;8.390;2023-02-03T14:49:29;101629.53;;;9.80;84.12
32851;BME280;19202;48.992;8.390;2023-02-03T14:55:34;101629.63;;;9.73;84.26
32851;BME280;19202;48.992;8.390;2023-02-03T15:07:33;101612.69;;;9.89;83.27
32851;BME280;19202;48.992;8.390;2023-02-03T15:13:28;101608.25;;;9.94;83.32
32851;BME280;19202;48.992;8.390;2023-02-03T15:19:15;101610.19;;;9.77;84.04
32851;BME280;19202;48.992;8.390;2023-02-03T15:24:59;101617.25;;;9.78;84.24
32851;BME280;19202;48.992;8.390;2023-02-03T15:30:37;101653.34;;;9.79;83.97
32851;BME280;19202;48.992;8.390;2023-02-03T15:36:20;101663.94;;;9.77;84.39
32851;BME280;19202;48.992;8.390;2023-02-03T15:42:00;101659.66;;;9.67;85.21
32851;BME280;19202;48.992;8.390;2023-02-03T15:47:54;101666.69;;;9.70;85.56
32851;BME280;19202;48.992;8.390;2023-02-03T15:53:57;101688.66;;;9.75;85.81
32851;BME280;19202;48.992;8.390;2023-02-03T15:59:43;101676.41;;;9.68;86.69
32851;BME280;19202;48.992;8.390;2023-02-03T16:05:26;101679.19;;;9.53;88.26
32851;BME280;19202;48.992;8.390;2023-02-03T16:17:04;101678.28;;;9.57;88.39
32851;BME280;19202;48.992;8.390;2023-02-03T16:22:46;101674.84;;;9.49;88.72
32851;BME280;19202;48.992;8.390;2023-02-03T16:28:24;101671.19;;;9.59;88.30
32851;BME280;19202;48.992;8.390;2023-02-03T16:34:22;101667.75;;;9.51;88.79
32851;BME280;19202;48.992;8.390;2023-02-03T16:40:21;101662.44;;;9.55;88.44
32851;BME280;19202;48.992;8.390;2023-02-03T16:46:18;101666.91;;;9.49;89.67
32851;BME280;19202;48.992;8.390;2023-02-03T16:52:15;101648.41;;;9.49;90.33
32851;BME280;19202;48.992;8.390;2023-02-03T16:57:53;101664.25;;;9.52;89.89
32851;BME280;19202;48.992;8.390;2023-02-03T17:03:33;101641.41;;;9.45;91.00
32851;BME280;19202;48.992;8.390;2023-02-03T17:09:11;101643.19;;;9.46;90.85
32851;BME280;19202;48.992;8.390;2023-02-03T17:14:49;101648.47;;;9.43;91.32
32851;BME280;19202;48.992;8.390;2023-02-03T17:20:27;101652.03;;;9.42;91.40
32851;BME280;19202;48.992;8.390;2023-02-03T17:26:05;101667.88;;;9.42;91.45
32851;BME280;19202;48.992;8.390;2023-02-03T17:31:44;101676.69;;;9.41;91.61
32851;BME280;19202;48.992;8.390;2023-02-03T17:37:22;101696.97;;;9.34;92.53
32851;BME280;19202;48.992;8.390;2023-02-03T17:43:00;101682.00;;;9.34;92.69
32851;BME280;19202;48.992;8.390;2023-02-03T17:48:38;101683.78;;;9.35;92.92
32851;BME280;19202;48.992;8.390;2023-02-03T17:54:16;101685.44;;;9.46;91.94
32851;BME280;19202;48.992;8.390;2023-02-03T17:59:54;101677.47;;;9.49;91.79
32851;BME280;19202;48.992;8.390;2023-02-03T18:05:33;101686.25;;;9.51;91.41
32851;BME280;19202;48.992;8.390;2023-02-03T18:11:14;101683.59;;;9.54;91.39
32851;BME280;19202;48.992;8.390;2023-02-03T18:16:53;101699.47;;;9.54;91.96
32851;BME280;19202;48.992;8.390;2023-02-03T18:22:31;101692.44;;;9.50;92.05
32851;BME280;19202;48.992;8.390;2023-02-03T18:28:10;101709.09;;;9.56;91.91
32851;BME280;19202;48.992;8.390;2023-02-03T18:33:49;101710.84;;;9.59;92.23
32851;BME280;19202;48.992;8.390;2023-02-03T18:39:27;101723.16;;;9.61;92.15
32851;BME280;19202;48.992;8.390;2023-02-03T18:45:06;101718.78;;;9.57;92.57
32851;BME280;19202;48.992;8.390;2023-02-03T18:50:44;101745.25;;;9.53;93.28
32851;BME280;19202;48.992;8.390;2023-02-03T18:56:23;101736.38;;;9.61;92.53
32851;BME280;19202;48.992;8.390;2023-02-03T19:02:01;101752.19;;;9.66;92.54
32851;BME280;19202;48.992;8.390;2023-02-03T19:07:40;101745.00;;;9.77;91.44
32851;BME280;19202;48.992;8.390;2023-02-03T19:13:18;101731.97;;;9.60;92.76
32851;BME280;19202;48.992;8.390;2023-02-03T19:18:56;101737.19;;;9.68;92.32
32851;BME280;19202;48.992;8.390;2023-02-03T19:24:34;101742.59;;;9.53;93.34
32851;BME280;19202;48.992;8.390;2023-02-03T19:30:12;101750.41;;;9.65;92.54
32851;BME280;19202;48.992;8.390;2023-02-03T19:35:50;101770.69;;;9.66;92.54
32851;BME280;19202;48.992;8.390;2023-02-03T19:41:28;101767.13;;;9.68;92.29
32851;BME280;19202;48.992;8.390;2023-02-03T19:47:07;101762.75;;;9.64;93.50
32851;BME280;19202;48.992;8.390;2023-02-03T19:52:45;101767.13;;;9.68;94.33
32851;BME280;19202;48.992;8.390;2023-02-03T19:58:25;101775.97;;;9.64;95.26
32851;BME280;19202;48.992;8.390;2023-02-03T20:04:03;101773.38;;;9.60;96.13
32851;BME280;19202;48.992;8.390;2023-02-03T20:09:42;101785.72;;;9.58;97.57
32851;BME280;19202;48.992;8.390;2023-02-03T20:15:20;101789.19;;;9.63;97.87
32851;BME280;19202;48.992;8.390;2023-02-03T20:20:58;101788.31;;;9.65;98.27
32851;BME280;19202;48.992;8.390;2023-02-03T20:26:37;101785.75;;;9.55;99.01
32851;BME280;19202;48.992;8.390;2023-02-03T20:32:15;101768.22;;;9.45;100.00
32851;BME280;19202;48.992;8.390;2023-02-03T20:37:53;101766.38;;;9.53;99.65
32851;BME280;19202;48.992;8.390;2023-02-03T20:43:31;101768.22;;;9.48;100.00
32851;BME280;19202;48.992;8.390;2023-02-03T20:49:10;101761.16;;;9.50;99.97
32851;BME280;19202;48.992;8.390;2023-02-03T20:54:50;101771.72;;;9.47;100.00
32851;BME280;19202;48.992;8.390;2023-02-03T21:00:28;101776.09;;;9.51;99.91
32851;BME280;19202;48.992;8.390;2023-02-03T21:06:16;101780.47;;;9.55;99.29
32851;BME280;19202;48.992;8.390;2023-02-03T21:11:55;101773.53;;;9.42;100.00
32851;BME280;19202;48.992;8.390;2023-02-03T21:17:34;101774.38;;;9.45;100.00
32851;BME280;19202;48.992;8.390;2023-02-03T21:23:12;101769.00;;;9.56;99.15
32851;BME280;19202;48.992;8.390;2023-02-03T21:28:52;101762.81;;;9.60;98.32
32851;BME280;19202;48.992;8.390;2023-02-03T21:34:32;101782.19;;;9.59;98.57
32851;BME280;19202;48.992;8.390;2023-02-03T21:40:25;101785.75;;;9.55;98.76
32851;BME280;19202;48.992;8.390;2023-02-03T21:46:04;101786.59;;;9.57;98.71
32851;BME280;19202;48.992;8.390;2023-02-03T21:51:42;101780.34;;;9.67;97.75
32851;BME280;19202;48.992;8.390;2023-02-03T21:57:20;101801.53;;;9.64;98.35
32851;BME280;19202;48.992;8.390;2023-02-03T22:02:58;101783.06;;;9.61;98.52
32851;BME280;19202;48.992;8.390;2023-02-03T22:08:43;101775.09;;;9.64;98.42
32851;BME280;19202;48.992;8.390;2023-02-03T22:14:21;101787.47;;;9.62;98.97
32851;BME280;19202;48.992;8.390;2023-02-03T22:19:59;101786.53;;;9.67;98.57
32851;BME280;19202;48.992;8.390;2023-02-03T22:25:37;101801.50;;;9.67;98.70
32851;BME280;19202;48.992;8.390;2023-02-03T22:31:15;101799.56;;;9.82;97.86
32851;BME280;19202;48.992;8.390;2023-02-03T22:36:53;101795.22;;;9.77;97.81
32851;BME280;19202;48.992;8.390;2023-02-03T22:42:31;101804.94;;;9.75;98.15
32851;BME280;19202;48.992;8.390;2023-02-03T22:48:09;101811.94;;;9.82;97.57
32851;BME280;19202;48.992;8.390;2023-02-03T22:53:47;101819.84;;;9.83;97.21
32851;BME280;19202;48.992;8.390;2023-02-03T22:59:25;101809.22;;;9.86;97.16
32851;BME280;19202;48.992;8.390;2023-02-03T23:05:07;101804.94;;;9.75;97.69
32851;BME280;19202;48.992;8.390;2023-02-03T23:10:45;101809.34;;;9.74;98.09
32851;BME280;19202;48.992;8.390;2023-02-03T23:16:24;101808.44;;;9.77;97.80
32851;BME280;19202;48.992;8.390;2023-02-03T23:22:02;101829.53;;;9.83;97.27
32851;BME280;19202;48.992;8.390;2023-02-03T23:27:40;101837.50;;;9.78;98.08
32851;BME280;19202;48.992;8.390;2023-02-03T23:33:18;101831.38;;;9.75;99.45
32851;BME280;19202;48.992;8.390;2023-02-03T23:38:56;101836.59;;;9.81;98.47
32851;BME280;19202;48.992;8.390;2023-02-03T23:44:34;101837.44;;;9.87;98.39
32851;BME280;19202;48.992;8.390;2023-02-03T23:50:15;101839.22;;;9.85;98.27
32851;BME280;19202;48.992;8.390;2023-02-03T23:55:53;101827.78;;;9.83;98.52
